Time;durP1;ratioP1;P1;durP2;ratioP2;P2;SDS_P1;SDS_P2;PMS_P1;PMS_P2;Temp;Humidity;BMP_temperature;BMP_pressure;BME280_temperature;BME280_humidity;BME280_pressure;Samples;Min_cycle;Max_cycle;Signal;HPM_P1;HPM_P2
2021/01/25 00:01:35;;;;;;;33.05;16.27;;;;;;;3.35;67.36;98224.03;5090113;28;20043;-76
2021/01/25 00:04:01;;;;;;;30.90;15.48;;;;;;;3.38;67.21;98225.66;5090194;28;20120;-76
2021/01/25 00:06:27;;;;;;;27.45;14.07;;;;;;;3.38;67.52;98223.91;5090256;28;20364;-76
2021/01/25 00:08:53;;;;;;;28.63;13.57;;;;;;;3.42;67.28;98222.03;5090305;28;20050;-76
2021/01/25 00:11:20;;;;;;;29.33;14.00;;;;;;;3.45;67.16;98225.31;5089480;28;20418;-79
2021/01/25 00:13:46;;;;;;;28.98;14.43;;;;;;;3.52;66.73;98233.66;5091368;28;20164;-76
2021/01/25 00:16:13;;;;;;;31.95;13.73;;;;;;;3.54;66.98;98226.66;5089345;28;20503;-77
2021/01/25 00:18:39;;;;;;;25.30;13.23;;;;;;;3.59;66.70;98228.19;5089933;28;20055;-76
2021/01/25 00:21:05;;;;;;;31.38;13.57;;;;;;;3.62;66.53;98224.63;5089612;28;20414;-75
2021/01/25 00:23:31;;;;;;;27.55;14.02;;;;;;;3.65;66.38;98229.66;5090608;28;20067;-75
2021/01/25 00:25:57;;;;;;;31.95;14.25;;;;;;;3.67;66.40;98222.66;5089761;28;20048;-77
2021/01/25 00:28:23;;;;;;;30.13;14.32;;;;;;;3.74;66.23;98224.06;5090174;28;20601;-78
2021/01/25 00:30:49;;;;;;;24.13;13.13;;;;;;;3.75;66.26;98233.56;5093746;28;20066;-76
2021/01/25 00:33:16;;;;;;;23.75;12.73;;;;;;;3.75;66.21;98230.97;5093267;28;20082;-75
2021/01/25 00:35:43;;;;;;;23.23;12.52;;;;;;;3.77;66.02;98231.75;5093743;28;20122;-76
2021/01/25 00:38:10;;;;;;;27.02;12.40;;;;;;;3.79;65.93;98232.53;5093799;28;20147;-76
2021/01/25 00:40:37;;;;;;;30.45;15.07;;;;;;;3.77;66.33;98231.75;5092568;28;20044;-77
2021/01/25 00:43:03;;;;;;;27.95;13.93;;;;;;;3.80;65.83;98234.19;5093465;28;20052;-76
2021/01/25 00:45:29;;;;;;;24.90;12.25;;;;;;;3.83;65.87;98231.47;5094566;28;20071;-76
2021/01/25 00:47:55;;;;;;;32.15;14.93;;;;;;;3.89;65.79;98232.94;5090867;28;20048;-76
2021/01/25 00:50:23;;;;;;;23.42;13.32;;;;;;;3.87;65.72;98237.34;5093565;28;20047;-75
2021/01/25 00:52:53;;;;;;;26.40;12.95;;;;;;;3.84;65.69;98245.28;5093672;28;20043;-76
2021/01/25 00:55:22;;;;;;;25.30;13.70;;;;;;;3.87;65.54;98240.78;5093424;28;20131;-76
2021/01/25 00:57:48;;;;;;;25.83;12.60;;;;;;;3.95;65.49;98254.25;5093642;28;20127;-76
2021/01/25 01:00:15;;;;;;;28.63;14.50;;;;;;;3.95;65.61;98259.44;5093433;28;20138;-76
2021/01/25 01:02:42;;;;;;;23.23;14.13;;;;;;;3.97;65.44;98252.47;5094218;28;20119;-76
2021/01/25 01:05:09;;;;;;;21.48;12.32;;;;;;;4.04;65.23;98257.38;5093359;28;20119;-76
2021/01/25 01:07:36;;;;;;;23.52;13.38;;;;;;;4.08;65.14;98248.53;5093475;28;20044;-75
2021/01/25 01:10:04;;;;;;;25.20;12.57;;;;;;;4.09;65.25;98266.63;5093113;28;20054;-76
2021/01/25 01:12:30;;;;;;;24.95;13.00;;;;;;;4.09;65.23;98276.16;5093424;28;20061;-75
2021/01/25 01:14:57;;;;;;;27.08;14.57;;;;;;;4.08;65.05;98270.13;5092917;28;20054;-75
2021/01/25 01:17:23;;;;;;;27.95;14.00;;;;;;;4.07;65.11;98270.19;5093062;28;20567;-75
2021/01/25 01:19:49;;;;;;;22.00;13.52;;;;;;;4.08;65.40;98269.28;5093353;28;20080;-77
2021/01/25 01:22:15;;;;;;;22.98;12.82;;;;;;;4.08;65.13;98264.94;5093065;28;20044;-76
2021/01/25 01:24:42;;;;;;;26.13;13.70;;;;;;;4.04;65.15;98267.75;5090958;28;20043;-77
2021/01/25 01:27:08;;;;;;;22.13;12.88;;;;;;;4.03;65.11;98268.66;5093223;28;20127;-76
2021/01/25 01:29:34;;;;;;;21.02;12.32;;;;;;;4.04;64.97;98262.56;5093545;28;20465;-75
2021/01/25 01:32:00;;;;;;;22.30;12.75;;;;;;;4.07;64.92;98263.25;5093104;28;20080;-76
2021/01/25 01:34:26;;;;;;;22.88;12.02;;;;;;;4.09;64.93;98268.38;5093033;28;20123;-76
2021/01/25 01:36:53;;;;;;;21.23;12.52;;;;;;;4.10;64.95;98267.47;5092606;28;20090;-76
2021/01/25 01:39:19;;;;;;;24.27;13.45;;;;;;;4.10;64.91;98259.69;5093402;28;20044;-76
2021/01/25 01:41:46;;;;;;;26.40;12.73;;;;;;;4.13;64.76;98264.75;5091805;28;20041;-76
2021/01/25 01:44:12;;;;;;;24.95;12.25;;;;;;;4.14;64.68;98274.19;5089410;28;20131;-75
2021/01/25 01:46:42;;;;;;;25.75;12.93;;;;;;;4.17;64.58;98274.94;5092323;28;20060;-74
2021/01/25 01:49:09;;;;;;;25.00;13.32;;;;;;;4.16;64.77;98273.22;5093151;28;20098;-75
2021/01/25 01:51:36;;;;;;;25.77;14.13;;;;;;;4.22;64.50;98272.13;5092443;28;20048;-75
2021/01/25 01:54:03;;;;;;;23.27;12.85;;;;;;;4.27;64.34;98270.16;5092595;28;20044;-75
2021/01/25 01:56:29;;;;;;;24.73;12.65;;;;;;;4.28;64.36;98277.88;5093458;28;20040;-75
2021/01/25 01:58:59;;;;;;;26.15;13.23;;;;;;;4.29;64.20;98273.53;5100314;28;20123;-74
2021/01/25 02:01:25;;;;;;;24.90;12.60;;;;;;;4.31;64.09;98269.13;5098116;28;20553;-76
2021/01/25 02:03:51;;;;;;;25.05;12.85;;;;;;;4.32;64.15;98267.38;5092586;28;20071;-76
2021/01/25 02:06:19;;;;;;;25.55;12.45;;;;;;;4.27;64.39;98268.41;5092122;28;20048;-76
2021/01/25 02:08:47;;;;;;;32.03;14.35;;;;;;;4.25;64.34;98266.81;5091982;28;20070;-76
2021/01/25 02:11:14;;;;;;;32.95;13.52;;;;;;;4.18;64.50;98266.25;5091598;28;20394;-77
2021/01/25 02:13:41;;;;;;;28.27;12.55;;;;;;;4.15;64.62;98265.50;5092041;28;20087;-77
2021/01/25 02:16:08;;;;;;;23.63;12.55;;;;;;;4.14;64.54;98269.00;5091576;28;20523;-76
2021/01/25 02:18:34;;;;;;;29.70;14.60;;;;;;;4.18;64.50;98276.63;5091847;28;20043;-76
2021/01/25 02:21:03;;;;;;;33.85;15.35;;;;;;;4.18;64.40;98273.19;5091847;28;20507;-76
2021/01/25 02:23:46;;;;;;;25.13;13.50;;;;;;;4.18;64.55;98281.81;5091915;28;20079;-77
2021/01/25 02:26:21;;;;;;;22.10;12.60;;;;;;;4.21;64.01;98273.88;5091740;28;20048;-76
2021/01/25 02:28:49;;;;;;;20.98;12.45;;;;;;;4.26;64.16;98276.28;5090336;28;20602;-77
2021/01/25 02:31:15;;;;;;;19.40;11.23;;;;;;;4.29;64.08;98268.34;5091378;28;20051;-74
2021/01/25 02:33:45;;;;;;;24.38;11.80;;;;;;;4.31;64.09;98271.72;5091546;28;20517;-77
2021/01/25 02:36:13;;;;;;;20.55;11.40;;;;;;;4.31;64.02;98279.50;5091706;28;20581;-77
2021/01/25 02:38:42;;;;;;;20.98;12.07;;;;;;;4.29;64.11;98278.72;5091193;28;20575;-77
2021/01/25 02:41:09;;;;;;;31.85;14.60;;;;;;;4.30;63.93;98275.22;5091058;28;20066;-77
2021/01/25 02:43:37;;;;;;;30.70;15.20;;;;;;;4.34;64.07;98271.56;5090909;28;20040;-77
2021/01/25 02:46:07;;;;;;;29.00;15.52;;;;;;;4.34;64.03;98270.72;5092706;28;20048;-78
2021/01/25 02:48:34;;;;;;;38.13;16.83;;;;;;;4.33;63.96;98276.81;5092853;28;20140;-78
2021/01/25 02:51:00;;;;;;;30.23;15.07;;;;;;;4.31;64.19;98271.72;5091786;28;20086;-78
2021/01/25 02:53:26;;;;;;;31.30;15.18;;;;;;;4.26;64.11;98276.28;5092041;28;20048;-76
2021/01/25 02:55:54;;;;;;;36.70;15.38;;;;;;;4.21;64.08;98270.44;5091974;28;20244;-75
2021/01/25 02:58:21;;;;;;;33.65;14.77;;;;;;;4.19;64.23;98274.88;5089790;28;20487;-75
2021/01/25 03:00:48;;;;;;;35.05;15.63;;;;;;;4.18;64.05;98274.03;5092146;28;20052;-76
2021/01/25 03:03:16;;;;;;;42.15;16.25;;;;;;;4.23;64.08;98273.81;5092653;28;20119;-76
2021/01/25 03:05:43;;;;;;;34.25;15.60;;;;;;;4.24;64.21;98273.75;5092085;28;20048;-76
2021/01/25 03:08:09;;;;;;;32.88;16.23;;;;;;;4.23;64.11;98274.66;5088742;28;20052;-76
2021/01/25 03:10:35;;;;;;;37.53;17.63;;;;;;;4.24;64.14;98272.91;5089619;28;20407;-76
2021/01/25 03:13:02;;;;;;;45.08;21.63;;;;;;;4.26;63.97;98273.66;5091871;28;20036;-77
2021/01/25 03:15:29;;;;;;;36.80;17.30;;;;;;;4.23;63.89;98281.59;5091737;28;20052;-76
2021/01/25 03:17:56;;;;;;;33.70;17.83;;;;;;;4.24;64.08;98291.06;5089911;28;20079;-76
2021/01/25 03:20:23;;;;;;;26.80;15.95;;;;;;;4.24;63.94;98285.88;5085298;28;20487;-77
2021/01/25 03:22:49;;;;;;;25.13;14.15;;;;;;;4.25;63.89;98282.38;5091606;28;20044;-77
2021/01/25 03:25:15;;;;;;;27.38;14.77;;;;;;;4.30;63.79;98288.19;5091710;28;20055;-76
2021/01/25 03:27:41;;;;;;;24.45;13.85;;;;;;;4.33;63.59;98285.44;5091779;28;20047;-76
2021/01/25 03:30:09;;;;;;;26.92;13.30;;;;;;;4.33;63.99;98295.81;5092781;28;20078;-76
2021/01/25 03:32:36;;;;;;;26.77;15.20;;;;;;;4.35;63.77;98293.16;5092890;28;20052;-74
2021/01/25 03:35:02;;;;;;;25.85;14.98;;;;;;;4.36;63.53;98292.25;5091604;28;20044;-77
2021/01/25 03:37:31;;;;;;;27.95;16.45;;;;;;;4.33;63.45;98298.41;5091365;28;20075;-76
2021/01/25 03:39:57;;;;;;;32.92;17.08;;;;;;;4.37;63.60;98297.38;5091642;28;20123;-76
2021/01/25 03:42:23;;;;;;;34.58;17.85;;;;;;;4.33;63.66;98301.00;5091298;28;20116;-77
2021/01/25 03:44:49;;;;;;;27.38;14.68;;;;;;;4.33;63.79;98300.19;5087248;28;20083;-77
2021/01/25 03:47:15;;;;;;;25.77;13.38;;;;;;;4.36;63.51;98300.03;5086313;28;20043;-77
2021/01/25 03:49:41;;;;;;;27.23;14.75;;;;;;;4.33;63.51;98303.63;5092158;28;20090;-77
2021/01/25 03:52:07;;;;;;;25.60;15.27;;;;;;;4.34;63.78;98305.28;5090947;28;20546;-77
2021/01/25 03:54:36;;;;;;;29.45;15.13;;;;;;;4.34;63.52;98307.88;5092667;28;20048;-81
2021/01/25 03:57:02;;;;;;;23.00;13.70;;;;;;;4.36;63.68;98316.44;5091722;28;20168;-79
2021/01/25 03:59:34;;;;;;;24.17;13.70;;;;;;;4.29;63.89;98320.22;5092649;28;20051;-80
2021/01/25 04:02:00;;;;;;;24.58;14.07;;;;;;;4.29;63.82;98317.63;5091674;28;20145;-75
2021/01/25 04:04:27;;;;;;;23.42;14.27;;;;;;;4.25;63.97;98322.13;5091552;28;20123;-76
2021/01/25 04:06:53;;;;;;;26.98;14.63;;;;;;;4.25;63.75;98323.88;5090780;28;20047;-76
2021/01/25 04:09:19;;;;;;;28.27;15.25;;;;;;;4.27;63.88;98327.22;5084985;28;20106;-77
2021/01/25 04:11:46;;;;;;;24.52;14.00;;;;;;;4.28;64.13;98321.13;5091617;28;20047;-77
2021/01/25 04:14:12;;;;;;;24.98;14.55;;;;;;;4.32;63.60;98329.63;5085757;28;20083;-76
2021/01/25 04:16:38;;;;;;;29.23;15.13;;;;;;;4.30;63.51;98321.91;5091245;28;20403;-77
2021/01/25 04:19:05;;;;;;;21.60;13.30;;;;;;;4.30;63.70;98324.50;5087219;28;20471;-76
2021/01/25 04:21:31;;;;;;;26.38;14.85;;;;;;;4.29;63.55;98325.41;5090780;28;20536;-75
2021/01/25 04:23:58;;;;;;;31.75;15.57;;;;;;;4.27;63.61;98324.63;5091645;28;20048;-76
2021/01/25 04:26:24;;;;;;;26.42;15.32;;;;;;;4.28;63.68;98321.97;5090663;28;20048;-77
2021/01/25 04:28:52;;;;;;;26.58;14.82;;;;;;;4.26;63.64;98320.38;5091128;28;20123;-77
2021/01/25 04:31:18;;;;;;;27.60;15.15;;;;;;;4.26;63.63;98325.56;5090512;28;20130;-76
2021/01/25 04:33:44;;;;;;;29.20;15.73;;;;;;;4.26;63.62;98326.38;5090840;28;20127;-77
2021/01/25 04:36:10;;;;;;;28.88;15.15;;;;;;;4.29;63.58;98323.66;5089142;28;20060;-80
2021/01/25 04:38:36;;;;;;;31.83;15.65;;;;;;;4.30;63.50;98324.50;5091226;28;20123;-79
2021/01/25 04:41:02;;;;;;;28.83;13.73;;;;;;;4.33;63.41;98326.97;5090819;28;20183;-79
2021/01/25 04:43:32;;;;;;;27.77;13.20;;;;;;;4.32;63.71;98324.44;5090316;28;20306;-79
2021/01/25 04:45:59;;;;;;;31.42;13.60;;;;;;;4.29;63.20;98328.00;5088827;28;20044;-78
2021/01/25 04:48:28;;;;;;;24.85;13.07;;;;;;;4.28;63.58;98328.91;5089134;28;20067;-81
2021/01/25 04:50:55;;;;;;;22.52;13.52;;;;;;;4.28;63.34;98321.97;5091688;28;20071;-77
2021/01/25 04:53:21;;;;;;;21.15;11.23;;;;;;;4.34;63.41;98335.59;5090425;28;20131;-76
2021/01/25 04:55:50;;;;;;;21.45;12.23;;;;;;;4.35;63.41;98329.47;5090120;28;20142;-76
2021/01/25 04:58:19;;;;;;;23.60;13.00;;;;;;;4.37;63.29;98332.84;5090268;28;20063;-77
2021/01/25 05:00:48;;;;;;;25.58;13.73;;;;;;;4.39;63.36;98337.09;5091927;28;20079;-80
2021/01/25 05:03:16;;;;;;;31.63;15.40;;;;;;;4.37;63.27;98341.47;5091125;28;20052;-79
2021/01/25 05:05:42;;;;;;;35.55;18.27;;;;;;;4.40;63.21;98341.38;5087349;28;20049;-79
2021/01/25 05:08:08;;;;;;;37.30;18.83;;;;;;;4.42;63.39;98334.34;5090802;28;20044;-79
2021/01/25 05:10:34;;;;;;;34.35;16.58;;;;;;;4.44;63.26;98337.72;5091161;28;20050;-79
2021/01/25 05:13:01;;;;;;;35.80;16.95;;;;;;;4.45;63.24;98342.00;5089033;28;20309;-79
2021/01/25 05:15:29;;;;;;;31.95;16.25;;;;;;;4.45;63.37;98339.41;5091223;28;20059;-79
2021/01/25 05:17:56;;;;;;;34.05;17.90;;;;;;;4.44;63.30;98336.88;5094087;28;20473;-78
2021/01/25 05:20:24;;;;;;;42.88;19.60;;;;;;;4.43;63.25;98332.59;5094220;28;20491;-79
2021/01/25 05:22:51;;;;;;;47.25;21.77;;;;;;;4.47;63.46;98340.19;5094452;28;20044;-79
2021/01/25 05:25:28;;;;;;;44.25;20.13;;;;;;;4.47;63.30;98329.78;5094779;28;20054;-78
2021/01/25 05:27:55;;;;;;;30.83;16.02;;;;;;;4.48;63.22;98338.44;5095002;28;20060;-82
2021/01/25 05:30:22;;;;;;;31.98;15.55;;;;;;;4.51;62.97;98346.06;5106284;28;20123;-77
2021/01/25 05:32:50;;;;;;;26.42;14.57;;;;;;;4.52;63.24;98343.41;5106375;28;20045;-78
2021/01/25 05:35:20;;;;;;;32.97;15.43;;;;;;;4.54;63.24;98341.59;5096859;28;20411;-78
2021/01/25 05:37:53;;;;;;;35.90;16.35;;;;;;;4.53;63.12;98345.09;5094794;28;20119;-79
2021/01/25 05:40:22;;;;;;;39.30;17.15;;;;;;;4.55;63.23;98347.63;5100598;28;20071;-78
2021/01/25 05:42:48;;;;;;;33.38;16.38;;;;;;;4.56;63.33;98350.13;5101976;28;20149;-78
2021/01/25 05:45:15;;;;;;;28.15;15.18;;;;;;;4.59;63.10;98344.84;5093917;28;20044;-79
2021/01/25 05:47:46;;;;;;;34.85;15.57;;;;;;;4.62;62.83;98341.25;5093321;28;20044;-79
2021/01/25 05:50:24;;;;;;;26.58;13.40;;;;;;;4.67;62.90;98347.09;5089363;28;20127;-78
2021/01/25 05:52:51;;;;;;;32.58;17.38;;;;;;;4.61;62.86;98342.16;5089074;28;20043;-79
2021/01/25 05:55:21;;;;;;;36.40;17.52;;;;;;;4.54;63.16;98351.97;5091765;28;20416;-80
2021/01/25 05:57:48;;;;;;;30.50;15.35;;;;;;;4.48;63.34;98347.03;5092019;28;20537;-79
2021/01/25 06:00:15;;;;;;;32.92;16.17;;;;;;;4.46;63.44;98348.03;5089237;28;20083;-78
2021/01/25 06:02:46;;;;;;;30.00;14.82;;;;;;;4.39;63.29;98352.66;5092431;28;20410;-77
2021/01/25 06:05:15;;;;;;;27.33;14.65;;;;;;;4.36;63.46;98355.34;5091794;28;20048;-79
2021/01/25 06:07:42;;;;;;;25.98;13.73;;;;;;;4.33;63.47;98363.28;5090449;28;20135;-77
2021/01/25 06:10:14;;;;;;;33.92;17.63;;;;;;;4.31;63.82;98353.88;5092235;28;20044;-77
2021/01/25 06:12:44;;;;;;;34.50;19.48;;;;;;;4.31;63.43;98364.25;5091810;28;20453;-77
2021/01/25 06:15:16;;;;;;;32.95;16.35;;;;;;;4.32;63.47;98364.19;5091474;28;20482;-77
2021/01/25 06:17:45;;;;;;;28.25;16.45;;;;;;;4.35;63.52;98365.81;5092030;28;20524;-78
2021/01/25 06:20:12;;;;;;;23.52;14.82;;;;;;;4.38;63.39;98371.72;5087853;28;20048;-80
2021/01/25 06:22:39;;;;;;;27.92;14.98;;;;;;;4.38;63.48;98365.69;5091936;28;20261;-80
2021/01/25 06:25:07;;;;;;;24.00;14.52;;;;;;;4.36;63.34;98370.91;5089371;28;20084;-77
2021/01/25 06:27:37;;;;;;;24.00;13.25;;;;;;;4.35;63.26;98374.41;5091437;28;20078;-78
2021/01/25 06:30:05;;;;;;;29.30;15.60;;;;;;;4.36;63.23;98368.31;5088164;28;20040;-75
2021/01/25 06:32:31;;;;;;;29.20;17.33;;;;;;;4.37;63.22;98380.38;5091206;28;20048;-75
2021/01/25 06:34:57;;;;;;;28.23;14.93;;;;;;;4.39;62.90;98373.41;5090612;28;20052;-74
2021/01/25 06:37:25;;;;;;;27.50;14.30;;;;;;;4.39;63.22;98376.00;5092587;28;20052;-75
2021/01/25 06:39:51;;;;;;;43.80;25.08;;;;;;;4.38;62.92;98376.91;5090014;28;20044;-75
2021/01/25 06:42:17;;;;;;;54.33;28.95;;;;;;;4.43;62.87;98380.16;5087664;28;20159;-77
2021/01/25 06:44:45;;;;;;;36.55;21.75;;;;;;;4.43;63.09;98376.72;5084769;28;20048;-76
2021/01/25 06:47:15;;;;;;;41.55;18.60;;;;;;;4.41;62.97;98387.16;5089731;28;20445;-78
2021/01/25 06:49:44;;;;;;;34.28;18.50;;;;;;;4.44;62.79;98381.81;5083592;28;20075;-82
2021/01/25 06:52:14;;;;;;;29.63;14.75;;;;;;;4.47;62.72;98386.88;5088589;28;20085;-75
2021/01/25 06:54:44;;;;;;;27.30;13.38;;;;;;;4.46;62.71;98389.53;5088206;28;20058;-75
2021/01/25 06:57:21;;;;;;;33.75;15.95;;;;;;;4.43;62.92;98390.53;5086069;28;20131;-76
2021/01/25 06:59:50;;;;;;;27.42;14.55;;;;;;;4.45;62.64;98390.47;5088876;28;20135;-74
2021/01/25 07:02:19;;;;;;;27.42;14.55;;;;;;;4.44;62.69;98399.16;5089832;28;20101;-74
2021/01/25 07:04:45;;;;;;;26.52;14.18;;;;;;;4.43;62.72;98403.50;5088500;28;20079;-76
2021/01/25 07:07:22;;;;;;;29.38;15.88;;;;;;;4.43;62.62;98406.09;5087509;28;20052;-75
2021/01/25 07:09:49;;;;;;;28.33;16.17;;;;;;;4.46;62.65;98403.34;5088306;28;20045;-76
2021/01/25 07:12:16;;;;;;;36.33;18.75;;;;;;;4.49;62.36;98407.56;5088901;28;20047;-77
2021/01/25 07:14:43;;;;;;;41.10;20.92;;;;;;;4.54;62.35;98410.81;5087114;28;20312;-77
2021/01/25 07:17:11;;;;;;;39.83;18.70;;;;;;;4.53;62.24;98407.38;5088509;28;20036;-76
2021/01/25 07:19:37;;;;;;;41.97;18.77;;;;;;;4.53;62.21;98412.56;5088647;28;20039;-76
2021/01/25 07:22:04;;;;;;;42.80;19.80;;;;;;;4.54;62.21;98413.41;5090040;28;20085;-78
2021/01/25 07:24:31;;;;;;;43.53;19.95;;;;;;;4.53;62.36;98409.13;5085751;28;20051;-77
2021/01/25 07:26:58;;;;;;;53.22;25.60;;;;;;;4.55;62.27;98405.53;5088606;28;20487;-78
2021/01/25 07:29:26;;;;;;;48.03;25.58;;;;;;;4.53;62.34;98401.34;5088781;28;20131;-77
2021/01/25 07:31:54;;;;;;;51.38;25.33;;;;;;;4.52;62.24;98405.69;5087111;28;20467;-78
2021/01/25 07:34:21;;;;;;;75.93;35.50;;;;;;;4.58;62.03;98405.44;5086557;28;20429;-76
2021/01/25 07:36:48;;;;;;;74.53;34.88;;;;;;;4.65;61.82;98397.38;5087851;28;20568;-76
2021/01/25 07:39:16;;;;;;;60.58;31.63;;;;;;;4.68;61.72;98399.84;5087527;28;20554;-76
2021/01/25 07:41:43;;;;;;;76.55;35.17;;;;;;;4.68;61.79;98400.69;5081713;28;20053;-76
2021/01/25 07:44:10;;;;;;;63.70;30.33;;;;;;;4.65;62.05;98398.22;5086849;28;20078;-77
2021/01/25 07:46:37;;;;;;;62.10;30.17;;;;;;;4.66;62.10;98392.13;5088279;28;20047;-78
2021/01/25 07:49:05;;;;;;;51.70;25.75;;;;;;;4.66;61.93;98402.50;5089997;28;20447;-78
2021/01/25 07:51:35;;;;;;;52.55;25.67;;;;;;;4.69;61.97;98406.72;5089165;28;20060;-77
2021/01/25 07:54:02;;;;;;;41.03;20.48;;;;;;;4.74;61.67;98408.19;5085711;28;20081;-77
2021/01/25 07:56:29;;;;;;;34.05;17.98;;;;;;;4.79;61.74;98405.38;5090641;28;20052;-77
2021/01/25 07:59:06;;;;;;;35.50;17.73;;;;;;;4.80;61.64;98404.50;5088243;28;20499;-77
2021/01/25 08:01:41;;;;;;;29.15;15.35;;;;;;;4.81;61.51;98404.44;5089565;28;20040;-77
2021/01/25 08:04:11;;;;;;;29.85;16.40;;;;;;;4.84;61.45;98400.84;5088709;28;20447;-78
2021/01/25 08:06:38;;;;;;;29.23;15.20;;;;;;;4.83;61.41;98412.16;5085228;28;20475;-77
2021/01/25 08:09:05;;;;;;;26.50;15.68;;;;;;;4.79;61.57;98407.97;5089662;28;20055;-79
2021/01/25 08:11:32;;;;;;;38.05;19.02;;;;;;;4.84;61.47;98419.88;5090501;28;20052;-78
2021/01/25 08:14:07;;;;;;;41.40;19.48;;;;;;;4.87;61.23;98411.94;5087537;28;20507;-79
2021/01/25 08:16:37;;;;;;;43.25;21.63;;;;;;;4.90;61.21;98419.59;5087288;28;20072;-78
2021/01/25 08:19:11;;;;;;;43.72;21.67;;;;;;;4.96;61.15;98415.84;5086791;28;20506;-80
2021/01/25 08:21:41;;;;;;;44.40;22.70;;;;;;;4.99;61.11;98415.72;5087317;28;20388;-78
2021/01/25 08:24:10;;;;;;;38.23;20.80;;;;;;;4.99;61.14;98420.06;5090188;28;20123;-78
2021/01/25 08:26:37;;;;;;;43.13;23.83;;;;;;;4.99;61.13;98420.06;5087136;28;20135;-79
2021/01/25 08:29:07;;;;;;;53.45;25.05;;;;;;;5.00;61.15;98416.56;5087803;28;20052;-78
2021/01/25 08:31:35;;;;;;;54.25;25.88;;;;;;;5.06;61.04;98422.34;5086974;28;20135;-79
2021/01/25 08:34:05;;;;;;;54.25;27.20;;;;;;;5.09;61.09;98417.00;5088761;28;20066;-79
2021/01/25 08:36:35;;;;;;;61.13;29.77;;;;;;;5.13;60.82;98418.53;5087973;28;20053;-78
2021/01/25 08:39:09;;;;;;;49.75;25.45;;;;;;;5.16;60.85;98408.00;5084636;28;20517;-77
2021/01/25 08:41:37;;;;;;;47.13;24.83;;;;;;;5.20;60.90;98413.91;5085221;28;20048;-78
2021/01/25 08:44:12;;;;;;;49.78;25.10;;;;;;;5.24;60.89;98409.44;5087366;28;20135;-78
2021/01/25 08:46:39;;;;;;;44.33;20.27;;;;;;;5.32;60.55;98413.34;5084859;28;20187;-77
2021/01/25 08:49:11;;;;;;;37.78;19.10;;;;;;;5.27;60.43;98417.94;5089252;28;20519;-77
2021/01/25 08:51:37;;;;;;;36.47;18.75;;;;;;;5.29;60.66;98408.31;5088071;28;20123;-78
2021/01/25 08:54:06;;;;;;;27.55;16.00;;;;;;;5.27;60.59;98411.88;5090666;28;20047;-77
2021/01/25 08:56:40;;;;;;;36.72;18.30;;;;;;;5.19;60.86;98409.63;5090764;28;20445;-78
2021/01/25 08:59:09;;;;;;;30.67;16.95;;;;;;;5.16;60.94;98410.59;5091082;28;20494;-74
2021/01/25 09:01:36;;;;;;;30.40;16.30;;;;;;;5.15;60.89;98415.88;5091793;28;20032;-76
2021/01/25 09:04:02;;;;;;;34.30;16.08;;;;;;;5.23;60.83;98412.94;5089414;28;20082;-75
2021/01/25 09:06:29;;;;;;;35.60;18.38;;;;;;;5.27;60.95;98417.94;5090732;28;20080;-75
2021/01/25 09:08:55;;;;;;;36.78;18.33;;;;;;;5.28;60.57;98422.22;5091047;28;20089;-75
2021/01/25 09:11:22;;;;;;;34.90;18.67;;;;;;;5.26;60.82;98423.19;5091129;28;20052;-75
2021/01/25 09:13:48;;;;;;;37.53;18.98;;;;;;;5.26;61.11;98421.44;5090841;28;20554;-75
2021/01/25 09:16:15;;;;;;;37.72;19.73;;;;;;;5.30;61.07;98429.94;5089643;28;20479;-75
2021/01/25 09:18:41;;;;;;;34.30;16.73;;;;;;;5.25;60.82;98429.31;5091821;28;20134;-75
2021/01/25 09:21:07;;;;;;;33.25;17.80;;;;;;;5.18;60.91;98434.75;5087613;28;20487;-75
2021/01/25 09:23:33;;;;;;;30.90;16.75;;;;;;;5.22;60.94;98443.28;5090797;28;20040;-76
2021/01/25 09:25:59;;;;;;;29.65;16.40;;;;;;;5.25;60.96;98442.28;5091931;28;20123;-80
2021/01/25 09:28:25;;;;;;;32.20;17.55;;;;;;;5.27;61.03;98441.31;5092421;28;20078;-80
2021/01/25 09:30:52;;;;;;;38.50;19.73;;;;;;;5.29;60.86;98446.44;5093300;28;20071;-82
2021/01/25 09:33:19;;;;;;;38.10;20.65;;;;;;;5.22;61.14;98442.44;5099252;28;20044;-79
2021/01/25 09:35:45;;;;;;;43.03;21.02;;;;;;;5.20;61.16;98445.94;5090886;28;20052;-80
2021/01/25 09:38:11;;;;;;;57.45;25.73;;;;;;;5.18;61.17;98441.72;5092583;28;20083;-78
2021/01/25 09:40:37;;;;;;;34.70;18.23;;;;;;;5.20;61.25;98438.16;5084877;28;20448;-78
2021/01/25 09:43:05;;;;;;;42.17;19.90;;;;;;;5.23;60.77;98438.94;5088001;28;20101;-78
2021/01/25 09:45:31;;;;;;;36.80;19.55;;;;;;;5.24;61.05;98446.66;5086812;28;20051;-80
2021/01/25 09:47:58;;;;;;;31.55;15.77;;;;;;;5.23;61.17;98451.91;5090903;28;20048;-81
2021/01/25 09:50:25;;;;;;;40.55;18.10;;;;;;;5.22;61.22;98445.03;5089845;28;20040;-82
2021/01/25 09:52:51;;;;;;;36.80;16.98;;;;;;;5.19;61.25;98444.22;5090284;28;20056;-82
2021/01/25 09:55:19;;;;;;;32.33;18.15;;;;;;;5.15;61.31;98440.09;5090678;28;20055;-82
2021/01/25 09:57:45;;;;;;;32.60;17.73;;;;;;;5.24;61.12;98451.84;5092110;28;20055;-81
2021/01/25 10:00:13;;;;;;;35.30;19.17;;;;;;;5.35;60.75;98453.94;5088106;28;20047;-81
2021/01/25 10:02:40;;;;;;;30.98;16.27;;;;;;;5.36;60.84;98453.03;5084259;28;20056;-82
2021/01/25 10:05:08;;;;;;;37.38;18.13;;;;;;;5.36;60.99;98453.03;5087245;28;20052;-82
2021/01/25 10:07:35;;;;;;;33.67;17.42;;;;;;;5.34;61.16;98463.50;5091461;28;20083;-81
2021/01/25 10:10:04;;;;;;;37.15;18.63;;;;;;;5.34;61.02;98462.66;5091006;28;20103;-79
2021/01/25 10:12:31;;;;;;;48.65;22.30;;;;;;;5.35;60.95;98453.94;5088553;28;20040;-80
2021/01/25 10:14:57;;;;;;;52.83;22.95;;;;;;;5.35;61.07;98454.78;5087522;28;20134;-80
2021/01/25 10:17:23;;;;;;;53.70;25.73;;;;;;;5.35;61.08;98448.75;5091820;28;20076;-79
2021/01/25 10:19:49;;;;;;;44.95;21.38;;;;;;;5.32;61.19;98443.69;5090771;28;20057;-80
2021/01/25 10:22:15;;;;;;;29.38;14.73;;;;;;;5.23;61.52;98450.16;5091120;28;20514;-80
2021/01/25 10:24:42;;;;;;;39.40;19.05;;;;;;;5.20;61.64;98445.94;5087880;28;20052;-81
2021/01/25 10:27:08;;;;;;;37.28;19.95;;;;;;;5.18;61.68;98446.91;5089305;28;20044;-80
2021/01/25 10:29:34;;;;;;;33.78;17.33;;;;;;;5.17;61.71;98456.44;5089288;28;20204;-80
2021/01/25 10:32:00;;;;;;;43.58;20.75;;;;;;;5.11;61.66;98446.34;5090738;28;20051;-79
2021/01/25 10:34:27;;;;;;;30.63;17.73;;;;;;;4.96;62.01;98447.03;5090172;28;20089;-80
2021/01/25 10:36:53;;;;;;;24.90;13.52;;;;;;;4.90;62.35;98453.34;5089799;28;20052;-81
2021/01/25 10:39:19;;;;;;;29.85;14.73;;;;;;;4.93;62.29;98441.97;5088873;28;20449;-78
2021/01/25 10:41:46;;;;;;;24.73;15.52;;;;;;;4.95;62.27;98439.31;5088037;28;20415;-78
2021/01/25 10:44:15;;;;;;;22.83;13.73;;;;;;;4.94;62.29;98435.88;5089053;28;20147;-78
2021/01/25 10:46:41;;;;;;;24.45;14.55;;;;;;;4.96;62.23;98438.38;5087896;28;20074;-78
2021/01/25 10:49:07;;;;;;;24.77;13.60;;;;;;;4.92;62.29;98436.84;5089660;28;20466;-75
2021/01/25 10:51:34;;;;;;;31.58;15.77;;;;;;;4.99;62.33;98435.66;5088848;28;20484;-78
2021/01/25 10:54:00;;;;;;;27.33;15.88;;;;;;;5.03;62.32;98443.25;5090439;28;20054;-81
2021/01/25 10:56:26;;;;;;;29.55;15.35;;;;;;;5.06;62.03;98437.94;5090679;28;20094;-78
2021/01/25 10:58:53;;;;;;;31.92;16.67;;;;;;;4.99;62.27;98433.91;5085600;28;20048;-78
2021/01/25 11:01:23;;;;;;;36.47;16.52;;;;;;;4.98;62.60;98436.56;5088867;28;20044;-82
2021/01/25 11:03:51;;;;;;;38.40;19.73;;;;;;;4.97;62.64;98438.31;5083389;28;20048;-79
2021/01/25 11:06:18;;;;;;;37.70;19.10;;;;;;;4.99;62.68;98446.03;5088101;28;20049;-80
2021/01/25 11:08:44;;;;;;;41.45;21.35;;;;;;;5.02;62.61;98443.34;5090640;28;20088;-80
2021/01/25 11:11:11;;;;;;;45.25;21.30;;;;;;;5.09;62.29;98442.97;5091008;28;20090;-78
2021/01/25 11:13:37;;;;;;;44.28;20.23;;;;;;;5.08;62.27;98441.28;5086262;28;20131;-79
2021/01/25 11:16:05;;;;;;;36.00;18.17;;;;;;;5.12;62.20;98437.63;5087226;28;20055;-78
2021/01/25 11:18:31;;;;;;;41.17;18.83;;;;;;;5.19;62.17;98436.44;5087643;28;20044;-79
2021/01/25 11:20:59;;;;;;;46.22;19.70;;;;;;;5.16;62.05;98431.38;5085986;28;20453;-79
2021/01/25 11:23:25;;;;;;;34.53;16.25;;;;;;;5.07;62.26;98431.81;5086580;28;20200;-79
2021/01/25 11:25:51;;;;;;;35.10;18.40;;;;;;;5.07;62.33;98434.41;5087942;28;20127;-79